ADDS METAR Data INFO
IDs: Format: Raw Decoded Include TAF

Data at: 1333 UTC 25 Sep 2017

KOZA 251315Z AUTO 17012G17KT 10SM DZ OVC010 21/20 A2991 RMK AO2 LTG DSNT S
KOZA 251255Z AUTO 17012G19KT 10SM -DZ OVC010 21/19 A2990 RMK AO2 LTG DSNT NW
KOZA 251235Z AUTO 16015G21KT BKN012 OVC018 21/19 A2989 RMK AO2 LTG DSNT NW PWINO
KOZA 251215Z AUTO 16014G24KT BKN009 OVC017 21/19 A2989 RMK AO2 LTG DSNT NW PWINO
KOZA 251155Z AUTO 16016G20KT OVC009 21/19 A2989 RMK AO2 LTG DSNT NW PWINO
KOZA 251135Z AUTO 17009G18KT OVC009 21/19 A2989 RMK AO2 LTG DSNT S AND NW PWINO
KOZA 251115Z AUTO 16014G20KT OVC009 21/19 A2989 RMK AO2 LTG DSNT NW PWINO
KOZA 251055Z AUTO 15008G15KT OVC009 21/20 A2989 RMK AO2 LTG DSNT NW P0001 PWINO
KOZA 251035Z AUTO 16010G17KT BKN009 OVC013 21/20 A2989 RMK AO2 PWINO
KOZA 251015Z AUTO 16011G21KT OVC011 21/20 A2990 RMK AO2 PWINO
KOZA 250955Z AUTO 16010KT OVC009 21/20 A2990 RMK AO2 LTG DSNT SE AND S P0001 PWINO
KOZA 250935Z AUTO 17012G15KT OVC009 22/20 A2990 RMK AO2 P0001 PWINO
KOZA 250915Z AUTO 11003KT OVC007 22/20 A2989 RMK AO2 LTG DSNT SE P0001 PWINO
KOZA 250855Z AUTO 00000KT OVC009 22/20 A2989 RMK AO2 P0004 PWINO
KOZA 250835Z AUTO 13004KT OVC011 22/20 A2989 RMK AO2 LTG DSNT S P0002 PWINO
KOZA 250815Z AUTO 16003KT BKN017 OVC021 22/20 A2990 RMK AO2 LTG DSNT S PWINO
KOZA 250755Z AUTO 14008KT 22/20 A2989 RMK AO2 LTG DSNT S PWINO
KOZA 250735Z AUTO 14007KT 22/20 A2989 RMK AO2 LTG DSNT S PWINO
KOZA 250715Z AUTO 15008G14KT BKN028 OVC034 22/20 A2990 RMK AO2 LTG DSNT S AND SW PWINO
KOZA 250655Z AUTO 15010G14KT BKN030 OVC034 22/20 A2990 RMK AO2 PWINO
KOZA 250635Z AUTO 15004KT OVC032 22/20 A2990 RMK AO2 PWINO
KOZA 250615Z AUTO 13004KT OVC034 22/20 A2991 RMK AO2 PWINO
KOZA 250555Z AUTO 11003KT OVC038 22/20 A2991 RMK AO2 LTG DSNT S PWINO
KOZA 250535Z AUTO 09004KT 21/20 A2991 RMK AO2 PWINO
KOZA 250515Z AUTO 09006KT OVC048 21/20 A2991 RMK AO2 PWINO
KOZA 250455Z AUTO 09007KT OVC050 21/20 A2991 RMK AO2 PWINO
KOZA 250435Z AUTO 14003KT BKN055 21/20 A2991 RMK AO2 PWINO
KOZA 250415Z AUTO 00000KT 21/20 A2991 RMK AO2 PWINO
KOZA 250355Z AUTO 07007KT 21/20 A2990 RMK AO2 PWINO
KOZA 250335Z AUTO 07003KT 21/20 A2991 RMK AO2 PWINO
KOZA 250315Z AUTO 04003KT 21/20 A2991 RMK AO2 PWINO
KOZA 250255Z AUTO 00000KT 21/20 A2991 RMK AO2 PWINO
KOZA 250235Z AUTO 00000KT 21/20 A2990 RMK AO2 PWINO
KOZA 250215Z AUTO 08003KT 22/20 A2989 RMK AO2 PWINO
KOZA 250155Z AUTO 09004KT 22/20 A2989 RMK AO2 PWINO
KOZA 250135Z AUTO 10004KT 22/21 A2989 RMK AO2 PWINO
KOZA 250115Z AUTO 00000KT 22/21 A2989 RMK AO2 PWINO
KOZA 250055Z AUTO 12003KT 10SM CLR 23/20 A2989 RMK AO2
KOZA 250035Z AUTO 14003KT 10SM SCT014 23/20 A2988 RMK AO2
KOZA 250015Z AUTO 13004KT 10SM SCT014 23/20 A2988 RMK AO2
KOZA 242355Z AUTO 14004KT 10SM SCT043 24/20 A2989 RMK AO2
KOZA 242335Z AUTO 17006KT 10SM CLR 23/20 A2988 RMK AO2
KOZA 242315Z AUTO 17007G14KT 10SM CLR 23/20 A2988 RMK AO2
KOZA 242255Z AUTO 15010KT 10SM CLR 23/19 A2987 RMK AO2
KOZA 242235Z AUTO 15008KT 10SM CLR 23/19 A2988 RMK AO2
KOZA 242215Z AUTO 14011KT 10SM CLR 23/19 A2988 RMK AO2
KOZA 242155Z AUTO 14008KT 10SM -RA CLR 23/20 A2989 RMK AO2
KOZA 242135Z AUTO 15010KT 10SM -RA CLR 23/20 A2990 RMK AO2
KOZA 242115Z AUTO 16007KT 10SM RA SCT090 22/20 A2991 RMK AO2
KOZA 242055Z AUTO 16007KT 10SM SCT014 SCT090 22/20 A2991 RMK AO2 P0001
KOZA 242035Z AUTO 17009G16KT 10SM SCT014 SCT027 SCT035 23/20 A2991 RMK AO2 P0001
KOZA 242015Z AUTO 17011KT 10SM -RA SCT014 BKN027 OVC036 23/20 A2993 RMK AO2 LTG DSNT S P0001
KOZA 241955Z AUTO 17007G15KT 10SM DZ SCT019 OVC027 22/20 A2993 RMK AO2 LTG DSNT S P0001
KOZA 241935Z AUTO 17011G14KT 10SM -RA SCT017 OVC025 22/20 A2993 RMK AO2 P0001
KOZA 241915Z AUTO 17011KT 7SM +RA BKN021 OVC025 22/20 A2994 RMK AO2
KOZA 241855Z AUTO 17013KT 10SM -RA OVC019 23/18 A2994 RMK AO2
KOZA 241835Z AUTO 17014G20KT 10SM -RA BKN019 OVC028 23/18 A2994 RMK AO2
KOZA 241815Z AUTO 17012G18KT 10SM BKN021 OVC029 24/18 A2994 RMK AO2
KOZA 241755Z AUTO 17014G18KT 10SM OVC021 23/18 A2994 RMK AO2
KOZA 241735Z AUTO 16016KT 10SM -RA OVC019 23/18 A2994 RMK AO2
KOZA 241715Z AUTO 17014G18KT 10SM -RA OVC019 23/18 A2994 RMK AO2
KOZA 241655Z AUTO 17013G19KT 10SM OVC019 23/18 A2994 RMK AO2
KOZA 241635Z AUTO 17014G19KT 10SM OVC019 23/18 A2994 RMK AO2
KOZA 241615Z AUTO 17016G21KT 10SM OVC021 23/17 A2995 RMK AO2
KOZA 241555Z AUTO 17012G20KT 10SM OVC021 23/17 A2995 RMK AO2
KOZA 241535Z AUTO 17014G21KT 10SM OVC021 23/17 A2995 RMK AO2
KOZA 241515Z AUTO 17010G21KT 10SM BKN019 OVC028 23/17 A2995 RMK AO2
KOZA 241455Z AUTO 17014G18KT 10SM SCT018 OVC024 23/17 A2994 RMK AO2
KOZA 241435Z AUTO 16014G18KT 10SM SCT019 OVC026 22/17 A2994 RMK AO2
KOZA 241415Z AUTO 16013KT 10SM SCT019 OVC027 22/17 A2994 RMK AO2
KOZA 241355Z AUTO 16014KT 10SM SCT019 OVC027 22/17 A2994 RMK AO2
KOZA 241335Z AUTO 16010KT 10SM BKN019 OVC025 22/17 A2993 RMK AO2
KOZA 241315Z AUTO 16013G17KT 10SM OVC019 22/17 A2993 RMK AO2
KOZA 241255Z AUTO 17009KT 10SM OVC019 22/17 A2993 RMK AO2
KOZA 241235Z AUTO 16017G21KT 10SM OVC019 22/17 A2991 RMK AO2
KOZA 241215Z AUTO 16010G16KT 10SM OVC019 22/17 A2991 RMK AO2
KOZA 241155Z AUTO 16012G18KT 10SM OVC019 22/17 A2990 RMK AO2
KOZA 241135Z AUTO 16012G19KT 10SM OVC021 22/17 A2990 RMK AO2
KOZA 241115Z AUTO 16013G17KT 10SM OVC021 22/17 A2990 RMK AO2
KOZA 241055Z AUTO 16014G17KT 10SM OVC021 22/17 A2990 RMK AO2
KOZA 241035Z AUTO 16016G22KT 10SM BKN023 OVC031 22/17 A2990 RMK AO2
KOZA 241015Z AUTO 17012KT 10SM SCT023 OVC031 22/17 A2990 RMK AO2
KOZA 240955Z AUTO 17015G21KT 10SM BKN027 22/17 A2989 RMK AO2
KOZA 240935Z AUTO 16012G18KT 10SM SCT027 BKN037 BKN047 22/17 A2990 RMK AO2 LTG DSNT NW
KOZA 240915Z AUTO 16017G24KT 10SM BKN037 BKN045 23/16 A2989 RMK AO2
KOZA 240855Z AUTO 16020G28KT 10SM BKN037 23/16 A2989 RMK AO2
KOZA 240835Z AUTO 16015G25KT 10SM BKN037 23/16 A2989 RMK AO2
KOZA 240815Z AUTO 17018G28KT 10SM OVC037 23/16 A2989 RMK AO2
KOZA 240755Z AUTO 16019G28KT 10SM SCT037 23/17 A2989 RMK AO2
KOZA 240735Z AUTO 16020G32KT 10SM SCT029 SCT039 24/17 A2988 RMK AO2
KOZA 240715Z AUTO 16024G31KT 10SM OVC029 24/17 A2989 RMK AO2
KOZA 240655Z AUTO 16019G28KT 10SM OVC029 25/18 A2988 RMK AO2 LTG DSNT SW
KOZA 240635Z AUTO 16020G25KT 10SM OVC029 25/18 A2989 RMK AO2
KOZA 240615Z AUTO 16020G26KT 10SM OVC029 25/18 A2989 RMK AO2
KOZA 240555Z AUTO 16023G29KT 10SM OVC031 25/17 A2989 RMK AO2
KOZA 240535Z AUTO 16017G22KT 10SM BKN031 25/17 A2989 RMK AO2
KOZA 240515Z AUTO 15019G27KT 10SM CLR 25/17 A2988 RMK AO2
KOZA 240455Z AUTO 15017G26KT 10SM CLR 25/16 A2988 RMK AO2
KOZA 240435Z AUTO 15014G23KT 10SM CLR 26/16 A2988 RMK AO2
KOZA 240415Z AUTO 15015G20KT 10SM CLR 26/15 A2988 RMK AO2
KOZA 240355Z AUTO 15015G20KT 10SM CLR 26/15 A2988 RMK AO2
KOZA 240335Z AUTO 14011KT 10SM CLR 26/15 A2987 RMK AO2
KOZA 240315Z AUTO 15009KT 10SM CLR 26/15 A2986 RMK AO2
KOZA 240255Z AUTO 14009KT 10SM CLR 26/15 A2987 RMK AO2
KOZA 240235Z AUTO 14008KT 10SM CLR 27/15 A2987 RMK AO2
KOZA 240215Z AUTO 15013G19KT 10SM CLR 27/15 A2987 RMK AO2
KOZA 240155Z AUTO 15011KT 10SM CLR 27/14 A2986 RMK AO2
KOZA 240135Z AUTO 15012G17KT 10SM CLR 27/13 A2984 RMK AO2